Latest Weather Observations for Cape Otway

IDV60801

Issued at 5:02 pm EDT Monday 22 December 2014 (issued every 30 minutes, with the page automatically refreshed every 10 minutes)

About weather observations | Map of weather stations | Latest weather observations for VIC | Other Formats
Station Details ID: 090015 Name: CAPE OTWAY LIGHTHOUSE Lat: -38.86 Lon: 143.51 Height: 82.0 m
Data from the previous 72 hours. | See also: Recent months at Cape Otway
Date/Time
EDT
Temp
°C
App
Temp
°C
Dew
Point
Rel
Hum
%
Delta-T
°C
Wind Press
QNH
hPa
Press
MSL
hPa
Rain
since 9 am
mm
Dir
 
Spd
km/h
Gust
km/h
Spd
kts
Gust
kts
22/05:00pm 17.0 12.3 16.8 99 0.1 ENE 37 52 20 28 1007.2 - 0.0
22/04:56pm 17.1 12.4 16.9 99 0.1 ENE 37 56 20 30 1007.2 - 0.0
22/04:47pm 17.3 12.7 17.0 98 0.2 ENE 37 56 20 30 1007.2 - 0.0
22/04:30pm 17.7 13.2 17.4 98 0.2 ENE 37 52 20 28 1007.5 - 0.0
22/04:23pm 17.7 14.0 17.5 99 0.1 ENE 33 52 18 28 1007.5 - 0.0
22/04:21pm 17.7 14.0 17.5 99 0.1 ENE 33 52 18 28 1007.5 - 0.0
22/04:00pm 18.0 14.4 17.7 98 0.2 NE 33 46 18 25 1008.2 - 0.0
22/03:30pm 17.5 12.9 17.2 98 0.2 NE 37 56 20 30 1008.2 - 0.0
22/03:29pm 17.5 13.0 17.3 99 0.1 NE 37 56 20 30 1008.2 - 0.0
22/03:00pm 17.5 11.8 17.2 98 0.2 ENE 43 59 23 32 1008.4 1008.3 0.0
22/02:30pm 18.0 12.4 17.5 97 0.3 ENE 43 63 23 34 1008.9 - 0.0
22/02:16pm 17.3 11.0 17.0 98 0.2 ENE 46 65 25 35 1008.9 - 0.0
22/02:01pm 17.3 12.2 16.8 97 0.3 ENE 39 57 21 31 1009.9 - 0.0
22/02:00pm 17.2 11.8 16.9 98 0.2 ENE 41 57 22 31 1009.8 - 0.0
22/01:44pm 17.1 12.6 16.4 96 0.4 ENE 35 54 19 29 1010.3 - 0.0
22/01:30pm 16.6 11.7 16.4 99 0.1 E 37 50 20 27 1010.4 - 0.0
22/01:03pm 16.6 12.1 16.3 98 0.2 E 35 54 19 29 1010.6 - 0.0
22/01:02pm 16.6 12.1 16.3 98 0.2 E 35 54 19 29 1010.7 - 0.0
22/01:00pm 16.5 11.5 16.2 98 0.2 E 37 54 20 29 1010.6 - 0.0
22/12:40pm 16.4 12.2 16.2 99 0.1 E 33 54 18 29 1011.0 - 0.0
22/12:30pm 16.6 13.1 16.4 99 0.1 E 30 44 16 24 1011.4 - 0.0
22/12:22pm 17.0 14.0 16.8 99 0.1 E 28 48 15 26 1011.8 - 0.0
22/12:21pm 16.9 13.9 16.7 99 0.1 E 28 48 15 26 1011.8 - 0.0
22/12:00pm 17.2 15.0 17.0 99 0.1 E 24 39 13 21 1012.6 1012.5 0.0
22/11:30am 18.0 16.1 17.7 98 0.2 E 24 37 13 20 1013.4 - 0.0
22/11:00am 18.0 17.5 17.7 98 0.2 E 17 26 9 14 1013.9 - 0.0
22/10:30am 17.7 16.6 17.4 98 0.2 E 19 28 10 15 1014.1 - 0.0
22/10:00am 16.7 15.1 16.4 98 0.2 E 20 35 11 19 1013.9 - 0.0
22/09:30am 16.4 15.2 16.1 98 0.2 E 17 28 9 15 1014.4 - 0.0
22/09:00am 16.0 14.7 15.7 98 0.2 E 17 28 9 15 1013.5 1013.5 0.0
22/08:30am 16.0 14.7 15.7 98 0.2 E 17 32 9 17 1014.0 - 0.0
22/08:00am 15.7 13.3 15.4 98 0.2 E 22 32 12 17 1013.4 - 0.0
22/07:30am 15.5 13.4 15.2 98 0.2 E 20 32 11 17 1013.3 - 0.0
22/07:00am 15.3 12.0 15.0 98 0.2 E 26 35 14 19 1012.6 - 0.0
22/06:30am 15.2 11.9 14.9 98 0.2 E 26 37 14 20 1012.5 - 0.0
22/06:00am 15.2 12.6 15.0 99 0.1 E 22 33 12 18 1012.5 1012.4 0.0
22/05:30am 15.3 13.3 15.0 98 0.2 E 19 28 10 15 1012.6 - 0.0
22/05:00am 15.3 14.1 15.1 99 0.1 E 15 26 8 14 1013.0 - 0.0
22/04:30am 15.5 13.6 15.2 98 0.2 E 19 35 10 19 1013.1 - 0.0
22/04:00am 15.5 13.6 15.2 98 0.2 E 19 32 10 17 1013.4 - 0.0
22/03:30am 15.6 14.5 15.3 98 0.2 E 15 24 8 13 1013.4 - 0.0
22/03:00am 15.6 14.1 15.3 98 0.2 E 17 32 9 17 1013.6 1013.5 0.0
22/02:30am 15.7 13.3 15.4 98 0.2 E 22 32 12 17 1014.1 - 0.0
22/02:00am 15.7 13.7 15.5 99 0.1 E 20 30 11 16 1014.3 - 0.0
22/01:30am 15.6 13.6 15.4 99 0.1 E 20 32 11 17 1014.4 - 0.0
22/01:00am 15.7 13.3 15.5 99 0.1 E 22 32 12 17 1014.6 - 0.0
22/12:30am 15.7 15.4 15.4 98 0.2 E 11 17 6 9 1014.8 - 0.0
22/12:00am 15.9 15.7 15.7 99 0.1 E 11 15 6 8 1014.9 1014.8 0.0
 
Date/Time
EDT
Temp
°C
App
Temp
°C
Dew
Point
Rel
Hum
%
Delta-T
°C
Wind Press
QNH
hPa
Press
MSL
hPa
Rain
since 9 am
mm
Dir
 
Spd
km/h
Gust
km/h
Spd
kts
Gust
kts
21/11:30pm 15.9 14.9 15.6 98 0.2 ESE 15 19 8 10 1015.1 - 0.0
21/11:00pm 15.7 14.7 15.5 99 0.1 ESE 15 20 8 11 1015.2 - 0.0
21/10:30pm 15.6 13.7 15.3 98 0.2 ESE 19 22 10 12 1015.2 - 0.0
21/10:00pm 16.0 16.2 15.8 99 0.1 SSE 9 17 5 9 1015.4 - 0.0
21/09:30pm 15.7 16.2 15.5 99 0.1 SSE 7 17 4 9 1015.2 - 0.0
21/09:00pm 15.9 15.2 15.4 97 0.3 SE 13 22 7 12 1014.9 1014.8 0.0
21/08:30pm 16.4 17.1 16.1 98 0.2 SSW 7 15 4 8 1015.0 - 0.0
21/08:00pm 16.8 17.7 16.5 98 0.2 S 7 13 4 7 1014.7 - 0.0
21/07:30pm 17.1 17.6 16.6 97 0.3 SSE 9 17 5 9 1014.3 - 0.0
21/07:00pm 17.7 18.9 16.9 95 0.5 S 6 13 3 7 1013.9 - 0.0
21/06:30pm 19.4 20.1 17.1 86 1.4 SE 9 13 5 7 1013.3 - 0.0
21/06:00pm 18.7 18.8 15.5 81 1.9 E 9 17 5 9 1012.9 1012.8 0.0
21/05:30pm 19.2 18.4 15.1 77 2.4 E 13 19 7 10 1012.8 - 0.0
21/05:00pm 19.2 17.9 14.9 76 2.5 E 15 20 8 11 1012.7 - 0.0
21/04:30pm 18.7 17.8 14.9 78 2.2 E 13 17 7 9 1012.9 - 0.0
21/04:00pm 18.2 16.8 14.6 79 2.1 E 15 20 8 11 1013.0 - 0.0
21/03:30pm 18.8 17.9 14.9 78 2.3 E 13 19 7 10 1013.2 - 0.0
21/03:00pm 18.9 17.1 14.4 75 2.6 E 17 26 9 14 1013.4 1013.4 0.0
21/02:30pm 19.5 17.1 14.5 73 2.9 E 20 28 11 15 1014.1 - 0.0
21/02:00pm 19.8 17.5 14.7 72 3.0 E 20 26 11 14 1014.4 - 0.0
21/01:30pm 18.3 14.8 14.5 78 2.2 E 26 30 14 16 1014.5 - 0.0
21/01:00pm 18.5 15.8 14.7 78 2.2 ESE 22 28 12 15 1014.7 - 0.0
21/12:30pm 19.6 17.4 14.8 74 2.8 E 20 24 11 13 1014.7 - 0.0
21/12:00pm 19.7 18.3 14.6 72 3.0 E 15 22 8 12 1014.4 1014.2 0.0
21/11:30am 20.2 19.1 14.4 69 3.4 E 13 20 7 11 1014.1 - 0.0
21/11:00am 19.8 18.6 14.1 69 3.3 E 13 20 7 11 1014.2 - 0.0
21/10:30am 19.1 17.9 14.1 73 2.9 E 13 20 7 11 1014.0 - 0.0
21/10:00am 19.3 17.9 13.5 69 3.3 E 13 20 7 11 1014.1 - 0.0
21/09:30am 18.9 17.0 13.1 69 3.3 E 15 19 8 10 1014.3 - 0.0
21/09:00am 17.7 16.1 12.9 73 2.7 E 13 17 7 9 1014.3 1014.2 0.0
21/08:30am 17.1 15.8 12.6 75 2.5 E 11 19 6 10 1014.2 - 0.0
21/08:00am 16.3 14.7 11.7 74 2.5 NE 11 17 6 9 1014.2 - 0.0
21/07:30am 14.9 12.8 12.5 85 1.3 NE 15 20 8 11 1014.2 - 0.0
21/07:00am 13.9 11.4 12.4 91 0.8 ENE 17 22 9 12 1013.7 - 0.0
21/06:30am 13.3 11.1 12.2 93 0.6 ENE 15 19 8 10 1014.1 - 0.0
21/06:00am 12.7 10.3 11.4 92 0.7 NE 15 17 8 9 1014.5 1014.4 0.0
21/05:30am 12.5 10.8 11.2 92 0.7 NE 11 13 6 7 1014.9 - 0.0
21/05:00am 12.6 10.9 11.3 92 0.7 NE 11 15 6 8 1014.9 - 0.0
21/04:30am 12.7 10.7 11.4 92 0.7 NE 13 17 7 9 1014.4 - 0.0
21/04:00am 12.9 10.1 11.4 91 0.8 NE 17 20 9 11 1013.9 - 0.0
21/03:30am 12.9 10.1 11.4 91 0.8 NE 17 20 9 11 1013.9 - 0.0
21/03:00am 12.9 9.7 11.4 91 0.8 NE 19 22 10 12 1014.1 1014.1 0.0
21/02:30am 12.8 10.0 11.3 91 0.8 NE 17 20 9 11 1014.7 - 0.0
21/02:00am 12.7 10.2 11.2 91 0.8 NE 15 19 8 10 1015.1 - 0.0
21/01:30am 12.4 10.6 10.9 90 0.8 NE 11 13 6 7 1015.8 - 0.0
21/01:00am 12.4 10.6 10.9 90 0.8 NE 11 13 6 7 1016.2 - 0.0
21/12:30am 12.7 11.3 10.8 88 1.0 NE 9 11 5 6 1016.8 - 0.0
21/12:00am 12.5 11.3 10.4 87 1.1 NE 7 9 4 5 1017.3 1017.3 0.0
 
Date/Time
EDT
Temp
°C
App
Temp
°C
Dew
Point
Rel
Hum
%
Delta-T
°C
Wind Press
QNH
hPa
Press
MSL
hPa
Rain
since 9 am
mm
Dir
 
Spd
km/h
Gust
km/h
Spd
kts
Gust
kts
20/11:30pm 11.7 10.3 9.7 87 1.0 NNE 7 9 4 5 1017.6 - 0.0
20/11:00pm 11.9 11.9 9.9 87 1.0 CALM 0 0 0 0 1017.8 - 0.0
20/10:30pm 12.1 12.2 10.0 87 1.1 CALM 0 0 0 0 1017.9 - 0.0
20/10:00pm 12.9 13.1 10.4 85 1.3 CALM 0 0 0 0 1017.9 - 0.0
20/09:30pm 13.8 13.8 11.0 83 1.5 SW 2 7 1 4 1017.8 - 0.0
20/09:00pm 15.0 14.1 11.5 79 1.9 SW 7 11 4 6 1017.8 1017.7 0.0
20/08:30pm 15.7 14.9 11.6 76 2.2 WSW 7 9 4 5 1017.7 - 0.0
20/08:00pm 16.4 14.9 12.0 75 2.4 WSW 11 13 6 7 1017.7 - 0.0
20/07:30pm 16.1 13.8 11.7 75 2.4 SW 15 20 8 11 1017.7 - 0.0
20/07:00pm 16.4 13.1 11.0 70 2.9 WSW 19 24 10 13 1017.6 - 0.0
20/06:30pm 17.0 13.5 10.9 67 3.3 WSW 20 24 11 13 1017.5 - 0.0
20/06:00pm 17.1 13.1 10.6 65 3.5 WSW 22 24 12 13 1017.4 1017.3 0.0
20/05:30pm 17.7 14.0 10.0 60 4.1 WSW 20 28 11 15 1017.7 - 0.0
20/05:00pm 18.3 14.9 10.7 61 4.1 W 19 24 10 13 1017.9 - 0.0
20/04:30pm 17.7 14.1 10.6 63 3.8 W 20 26 11 14 1018.1 - 0.0
20/04:00pm 17.1 13.8 11.0 67 3.3 W 19 24 10 13 1018.3 - 0.0
20/03:30pm 17.6 14.1 10.9 65 3.6 W 20 28 11 15 1018.5 - 0.0
20/03:00pm 17.5 13.6 10.8 65 3.6 W 22 28 12 15 1018.8 1018.7 0.0
20/02:30pm 17.5 13.1 10.4 63 3.8 W 24 30 13 16 1019.0 - 0.0
20/02:00pm 16.9 13.5 11.2 69 3.1 W 20 28 11 15 1019.1 - 0.0
20/01:30pm 17.5 13.0 9.9 61 4.0 W 24 32 13 17 1019.1 - 0.0
20/01:00pm 18.6 14.9 10.0 57 4.6 W 20 28 11 15 1019.2 - 0.0
20/12:30pm 18.0 12.7 9.7 58 4.4 W 28 33 15 18 1019.3 - 0.0
20/12:00pm 17.0 12.0 9.5 61 3.9 W 26 33 14 18 1019.3 1019.2 0.0
20/11:30am 17.3 12.1 9.0 58 4.3 W 26 33 14 18 1019.1 - 0.0
20/11:00am 17.2 12.5 9.3 59 4.1 W 24 35 13 19 1019.3 - 0.0
20/10:30am 17.7 12.2 9.1 57 4.5 W 28 39 15 21 1019.0 - 0.0
20/10:00am 16.4 11.1 9.7 64 3.5 W 28 35 15 19 1019.0 - 0.0
20/09:30am 16.4 12.7 10.1 66 3.3 WNW 20 32 11 17 1018.9 - 0.0
20/09:00am 15.4 11.3 10.1 70 2.8 WNW 22 30 12 16 1018.8 1018.7 0.0
20/08:30am 15.1 11.4 10.3 73 2.5 WNW 20 30 11 16 1018.4 - 0.0
20/08:00am 15.3 11.2 10.2 71 2.7 WNW 22 32 12 17 1018.2 - 0.0
20/07:30am 14.5 10.9 10.5 77 2.1 WNW 20 28 11 15 1017.8 - 0.0
20/07:00am 14.4 10.3 10.2 76 2.2 WNW 22 30 12 16 1017.6 - 0.0
20/06:30am 13.9 9.9 10.5 80 1.8 WNW 22 32 12 17 1017.4 - 0.0
20/06:00am 14.0 9.7 10.6 80 1.8 WNW 24 32 13 17 1017.2 1017.1 0.0
20/05:30am 14.0 10.5 10.2 78 2.0 WNW 19 28 10 15 1017.1 - 0.0
20/05:00am 13.9 10.0 9.6 75 2.2 WNW 20 32 11 17 1017.1 - 0.0
20/04:30am 14.2 10.5 10.0 76 2.2 WNW 20 30 11 16 1017.1 - 0.0
20/04:00am 14.3 10.6 10.1 76 2.2 WNW 20 32 11 17 1017.2 - 0.0
20/03:30am 14.4 10.1 9.5 72 2.5 WNW 22 30 12 16 1017.4 - 0.0
20/03:00am 14.2 10.9 9.7 74 2.3 WNW 17 28 9 15 1017.6 1017.5 0.0
20/02:30am 14.1 10.8 9.4 73 2.4 WNW 17 28 9 15 1018.0 - 0.0
20/02:00am 14.2 10.8 9.3 72 2.5 NW 17 24 9 13 1018.2 - 0.0
20/01:30am 14.3 10.6 9.4 72 2.5 NW 19 30 10 16 1018.6 - 0.0
20/01:00am 14.6 10.5 8.7 67 3.0 W 20 30 11 16 1018.7 - 0.0
20/12:30am 14.2 10.2 8.9 70 2.7 W 20 26 11 14 1019.0 - 0.0
20/12:00am 14.4 10.0 8.9 69 2.8 W 22 30 12 16 1019.2 1019.1 0.0
 
Date/Time
EDT
Temp
°C
App
Temp
°C
Dew
Point
Rel
Hum
%
Delta-T
°C
Wind Press
QNH
hPa
Press
MSL
hPa
Rain
since 9 am
mm
Dir
 
Spd
km/h
Gust
km/h
Spd
kts
Gust
kts
19/11:30pm 14.2 10.0 8.2 67 3.0 W 20 28 11 15 1019.5 - 0.0
19/11:00pm 14.3 9.7 8.3 67 3.0 W 22 28 12 15 1019.7 - 0.0
19/10:30pm 14.5 9.9 8.1 65 3.2 W 22 33 12 18 1019.8 - 0.0
19/10:00pm 14.7 9.8 8.6 67 3.1 W 24 33 13 18 1019.8 - 0.0
19/09:30pm 14.6 9.6 8.0 64 3.3 W 24 32 13 17 1019.6 - 0.0
19/09:00pm 14.8 9.4 7.8 63 3.5 W 26 35 14 19 1019.6 1019.5 0.0
19/08:30pm 14.7 9.7 8.1 64 3.3 W 24 33 13 18 1019.6 - 0.0
19/08:00pm 14.7 9.2 7.4 61 3.6 W 26 35 14 19 1019.6 - 0.0
19/07:30pm 14.9 9.3 7.2 60 3.8 W 26 32 14 17 1019.3 - 0.0
19/07:00pm 15.9 10.7 7.2 56 4.3 WSW 24 35 13 19 1019.1 - 0.0
19/06:30pm 16.3 10.7 7.0 54 4.6 WSW 26 37 14 20 1019.0 - 0.0
19/06:00pm 16.2 10.2 6.9 54 4.6 W 28 37 15 20 1018.7 1018.6 0.0
19/05:30pm 15.7 9.9 7.9 59 3.9 W 28 39 15 21 1018.6 - 0.0

Other Formats:

Comma delimited format used in spreadsheet applications
http://www.bom.gov.au/fwo/IDV60801/IDV60801.94842.axf

JavaScript Object Notation format (JSON) in row-major order
http://www.bom.gov.au/fwo/IDV60801/IDV60801.94842.json